Time;durP1;ratioP1;P1;durP2;ratioP2;P2;SDS_P1;SDS_P2;PMS_P1;PMS_P2;Temp;Humidity;BMP_temperature;BMP_pressure;BME280_temperature;BME280_humidity;BME280_pressure;Samples;Min_cycle;Max_cycle;Signal;HPM_P1;HPM_P2
2023/07/09 00:02:13;;;;;;;3.15;2.85;;;;;;;;;;4738318;30;20135;-78
2023/07/09 00:04:40;;;;;;;3.33;3.03;;;;;;;;;;4735006;30;20129;-76
2023/07/09 00:07:16;;;;;;;3.97;3.67;;;;;;;;;;4738749;30;20060;-76
2023/07/09 00:09:44;;;;;;;3.70;3.40;;;;;;;;;;4735939;30;20056;-76
2023/07/09 00:12:15;;;;;;;3.60;3.30;;;;;;;;;;4735412;30;20223;-77
2023/07/09 00:14:43;;;;;;;3.60;3.30;;;;;;;;;;4732221;30;20141;-77
2023/07/09 00:17:23;;;;;;;4.47;4.07;;;;;;;;;;4723299;30;20239;-76
2023/07/09 00:19:51;;;;;;;4.68;3.63;;;;;;;;;;4733412;30;20074;-76
2023/07/09 00:22:19;;;;;;;4.00;3.22;;;;;;;;;;4737857;30;20054;-76
2023/07/09 00:24:49;;;;;;;4.00;3.60;;;;;;;;;;4732370;30;20527;-76
2023/07/09 00:27:20;;;;;;;4.18;3.72;;;;;;;;;;4739469;30;20060;-77
2023/07/09 00:29:48;;;;;;;3.75;3.35;;;;;;;;;;4736252;30;20057;-78
2023/07/09 00:32:16;;;;;;;3.78;3.20;;;;;;;;;;4735517;30;20482;-77
2023/07/09 00:34:50;;;;;;;3.90;3.50;;;;;;;;;;4735537;30;20573;-76
2023/07/09 00:37:19;;;;;;;3.95;3.65;;;;;;;;;;4738289;30;20147;-78
2023/07/09 00:39:47;;;;;;;3.53;3.30;;;;;;;;;;4730636;30;20052;-78
2023/07/09 00:42:17;;;;;;;4.22;3.80;;;;;;;;;;4742804;30;20466;-78
2023/07/09 00:44:46;;;;;;;5.63;3.75;;;;;;;;;;4737565;30;20057;-76
2023/07/09 00:47:17;;;;;;;4.40;3.55;;;;;;;;;;4726459;30;20214;-76
2023/07/09 00:49:46;;;;;;;4.03;3.63;;;;;;;;;;4732617;30;20570;-76
2023/07/09 00:52:24;;;;;;;6.90;3.40;;;;;;;;;;4735130;30;20076;-77
2023/07/09 00:54:55;;;;;;;3.90;3.60;;;;;;;;;;4733535;30;20052;-76
2023/07/09 00:57:24;;;;;;;3.45;3.15;;;;;;;;;;4733167;30;20084;-77
2023/07/09 00:59:58;;;;;;;4.57;4.13;;;;;;;;;;4736806;30;20052;-78
2023/07/09 01:02:25;;;;;;;4.32;3.70;;;;;;;;;;4741236;30;20052;-76
2023/07/09 01:04:56;;;;;;;4.07;3.72;;;;;;;;;;4724889;30;20061;-77
2023/07/09 01:07:24;;;;;;;3.70;3.40;;;;;;;;;;4725044;30;20048;-76
2023/07/09 01:09:51;;;;;;;3.83;3.42;;;;;;;;;;4727552;30;20492;-77
2023/07/09 01:12:19;;;;;;;3.92;3.60;;;;;;;;;;4741987;30;20095;-77
2023/07/09 01:14:51;;;;;;;3.22;3.00;;;;;;;;;;4727900;30;20547;-77
2023/07/09 01:17:19;;;;;;;3.50;3.28;;;;;;;;;;4732143;30;20060;-76
2023/07/09 01:19:49;;;;;;;4.95;3.60;;;;;;;;;;4730589;30;20057;-76
2023/07/09 01:22:18;;;;;;;3.78;3.47;;;;;;;;;;4727442;30;20044;-76
2023/07/09 01:24:53;;;;;;;5.13;3.85;;;;;;;;;;4727806;30;20525;-76
2023/07/09 01:27:26;;;;;;;3.88;3.47;;;;;;;;;;4726001;30;20147;-76
2023/07/09 01:29:57;;;;;;;4.57;3.83;;;;;;;;;;4723509;30;20083;-77
2023/07/09 01:32:25;;;;;;;3.70;3.40;;;;;;;;;;4732521;30;20061;-77
2023/07/09 01:34:54;;;;;;;4.10;3.70;;;;;;;;;;4736771;30;20061;-76
2023/07/09 01:37:24;;;;;;;4.30;3.90;;;;;;;;;;4738038;30;20106;-76
2023/07/09 01:39:52;;;;;;;3.80;3.50;;;;;;;;;;4742185;30;20063;-76
2023/07/09 01:42:21;;;;;;;4.53;3.88;;;;;;;;;;4737934;30;20504;-76
2023/07/09 01:44:50;;;;;;;3.88;3.53;;;;;;;;;;4745160;30;20083;-78
2023/07/09 01:47:18;;;;;;;4.53;4.13;;;;;;;;;;4741105;30;20059;-76
2023/07/09 01:49:46;;;;;;;5.18;4.00;;;;;;;;;;4736547;30;20094;-76
2023/07/09 01:52:16;;;;;;;5.35;3.80;;;;;;;;;;4744774;30;20056;-77
2023/07/09 01:54:46;;;;;;;4.72;4.32;;;;;;;;;;4739649;30;20097;-76
2023/07/09 01:57:23;;;;;;;3.78;3.47;;;;;;;;;;4738924;30;20319;-76
2023/07/09 01:59:52;;;;;;;3.83;3.53;;;;;;;;;;4709060;30;20067;-76
2023/07/09 02:02:21;;;;;;;3.80;3.50;;;;;;;;;;4736522;30;20074;-76
2023/07/09 02:04:50;;;;;;;5.10;3.75;;;;;;;;;;4738234;30;20068;-76
2023/07/09 02:07:18;;;;;;;3.67;3.38;;;;;;;;;;4738162;30;20452;-76
2023/07/09 02:09:45;;;;;;;4.10;3.80;;;;;;;;;;4734946;30;20048;-76
2023/07/09 02:12:14;;;;;;;3.63;3.33;;;;;;;;;;4728887;30;20053;-76
2023/07/09 02:14:42;;;;;;;4.30;3.55;;;;;;;;;;4729824;30;20135;-76
2023/07/09 02:17:10;;;;;;;3.33;3.13;;;;;;;;;;4731747;30;20064;-76
2023/07/09 02:19:38;;;;;;;3.50;3.20;;;;;;;;;;4728451;30;20083;-76
2023/07/09 02:22:06;;;;;;;3.40;3.20;;;;;;;;;;4732182;30;20056;-76
2023/07/09 02:24:34;;;;;;;3.92;3.63;;;;;;;;;;4729882;30;20060;-76
2023/07/09 02:27:02;;;;;;;4.15;3.83;;;;;;;;;;4728882;30;20532;-76
2023/07/09 02:29:30;;;;;;;4.00;3.70;;;;;;;;;;4731427;30;20056;-76
2023/07/09 02:31:59;;;;;;;4.18;3.78;;;;;;;;;;4733717;30;20064;-76
2023/07/09 02:34:27;;;;;;;3.92;3.60;;;;;;;;;;4730538;30;20049;-76
2023/07/09 02:36:55;;;;;;;3.53;3.22;;;;;;;;;;4739320;30;20114;-76
2023/07/09 02:39:23;;;;;;;4.10;3.80;;;;;;;;;;4737414;30;20053;-76
2023/07/09 02:41:51;;;;;;;3.72;3.42;;;;;;;;;;4732198;30;20052;-76
2023/07/09 02:44:18;;;;;;;3.53;3.22;;;;;;;;;;4730469;30;20064;-77
2023/07/09 02:46:46;;;;;;;3.83;3.42;;;;;;;;;;4732186;30;20052;-76
2023/07/09 02:49:14;;;;;;;3.80;3.50;;;;;;;;;;4731004;30;20134;-76
2023/07/09 02:51:42;;;;;;;4.20;3.90;;;;;;;;;;4736767;30;20072;-76
2023/07/09 02:54:09;;;;;;;4.07;3.72;;;;;;;;;;4735780;30;20064;-76
2023/07/09 02:56:38;;;;;;;4.72;3.78;;;;;;;;;;4732458;30;20106;-76
2023/07/09 02:59:06;;;;;;;4.25;3.90;;;;;;;;;;4731593;30;20052;-76
2023/07/09 03:01:34;;;;;;;3.72;3.35;;;;;;;;;;4737240;30;20048;-77
2023/07/09 03:04:03;;;;;;;3.67;3.38;;;;;;;;;;4729961;30;20060;-76
2023/07/09 03:06:35;;;;;;;3.78;3.47;;;;;;;;;;4734052;30;20063;-76
2023/07/09 03:09:04;;;;;;;3.60;3.30;;;;;;;;;;4751557;24;20064;-73
2023/07/09 03:11:32;;;;;;;4.07;3.78;;;;;;;;;;4733062;30;20072;-73
2023/07/09 03:14:00;;;;;;;3.90;3.60;;;;;;;;;;4725300;30;20045;-74
2023/07/09 03:16:28;;;;;;;3.50;3.20;;;;;;;;;;4723031;30;20508;-73
2023/07/09 03:18:56;;;;;;;5.53;3.72;;;;;;;;;;4722380;30;20052;-74
2023/07/09 03:21:23;;;;;;;4.38;4.05;;;;;;;;;;4721042;30;20078;-73
2023/07/09 03:23:51;;;;;;;3.92;3.63;;;;;;;;;;4723301;30;20097;-74
2023/07/09 03:26:19;;;;;;;3.58;3.35;;;;;;;;;;4726114;30;20056;-74
2023/07/09 03:28:47;;;;;;;4.15;3.80;;;;;;;;;;4724682;30;20060;-74
2023/07/09 03:31:14;;;;;;;4.30;3.75;;;;;;;;;;4718638;30;20060;-74
2023/07/09 03:33:41;;;;;;;3.90;3.60;;;;;;;;;;4723878;30;20060;-73
2023/07/09 03:36:09;;;;;;;4.32;3.92;;;;;;;;;;4724829;30;20054;-73
2023/07/09 03:38:36;;;;;;;4.22;3.83;;;;;;;;;;4723846;30;20061;-73
2023/07/09 03:41:04;;;;;;;3.97;3.65;;;;;;;;;;4721758;30;20054;-73
2023/07/09 03:43:32;;;;;;;4.18;3.55;;;;;;;;;;4720997;30;20067;-74
2023/07/09 03:45:59;;;;;;;3.53;3.22;;;;;;;;;;4724052;30;20116;-73
2023/07/09 03:48:27;;;;;;;4.00;3.70;;;;;;;;;;4724214;30;20064;-73
2023/07/09 03:50:56;;;;;;;4.80;4.05;;;;;;;;;;4721145;30;20053;-76
2023/07/09 03:53:23;;;;;;;3.95;3.65;;;;;;;;;;4712936;30;20049;-75
2023/07/09 03:55:54;;;;;;;4.10;3.70;;;;;;;;;;4715590;30;20056;-74
2023/07/09 03:58:22;;;;;;;4.38;4.05;;;;;;;;;;4726241;30;20087;-74
2023/07/09 04:00:50;;;;;;;4.03;3.70;;;;;;;;;;4723179;30;20106;-74
2023/07/09 04:03:17;;;;;;;4.18;3.85;;;;;;;;;;4724746;30;20095;-75
2023/07/09 04:05:44;;;;;;;4.68;4.28;;;;;;;;;;4725125;30;20056;-74
2023/07/09 04:08:12;;;;;;;4.40;4.00;;;;;;;;;;4725633;30;21610;-74
2023/07/09 04:10:39;;;;;;;4.75;4.35;;;;;;;;;;4723016;30;20065;-74
2023/07/09 04:13:07;;;;;;;4.68;4.28;;;;;;;;;;4718224;30;20067;-74
2023/07/09 04:15:34;;;;;;;3.88;3.50;;;;;;;;;;4722386;30;20072;-74
2023/07/09 04:18:01;;;;;;;5.93;3.95;;;;;;;;;;4719884;30;20135;-75
2023/07/09 04:20:29;;;;;;;3.83;3.53;;;;;;;;;;4723328;30;20052;-74
2023/07/09 04:22:56;;;;;;;4.78;4.32;;;;;;;;;;4724644;30;20057;-75
2023/07/09 04:25:24;;;;;;;3.97;3.65;;;;;;;;;;4724024;30;20334;-74
2023/07/09 04:27:52;;;;;;;3.90;3.60;;;;;;;;;;4725253;30;20068;-74
2023/07/09 04:30:19;;;;;;;3.90;3.60;;;;;;;;;;4723645;30;20075;-75
2023/07/09 04:32:47;;;;;;;4.60;4.20;;;;;;;;;;4722008;30;20083;-76
2023/07/09 04:35:14;;;;;;;3.70;3.40;;;;;;;;;;4723311;30;20057;-74
2023/07/09 04:37:42;;;;;;;3.85;3.63;;;;;;;;;;4726682;30;20050;-74
2023/07/09 04:40:11;;;;;;;3.92;3.63;;;;;;;;;;4720393;30;20065;-75
2023/07/09 04:42:39;;;;;;;3.95;3.58;;;;;;;;;;4721224;30;20143;-74
2023/07/09 04:45:08;;;;;;;3.95;3.55;;;;;;;;;;4724062;30;20056;-74
2023/07/09 04:47:42;;;;;;;3.67;3.38;;;;;;;;;;4725887;30;20053;-74
2023/07/09 04:50:11;;;;;;;3.80;3.47;;;;;;;;;;4722018;30;20056;-73
2023/07/09 04:52:39;;;;;;;3.92;3.53;;;;;;;;;;4721803;30;20094;-74
2023/07/09 04:55:08;;;;;;;4.38;3.97;;;;;;;;;;4716331;30;20045;-74
2023/07/09 04:57:36;;;;;;;3.33;3.03;;;;;;;;;;4722231;30;20064;-74
2023/07/09 05:00:05;;;;;;;3.65;3.45;;;;;;;;;;4723800;30;20396;-74
2023/07/09 05:02:34;;;;;;;3.83;3.53;;;;;;;;;;4713914;30;20135;-74
2023/07/09 05:05:01;;;;;;;3.72;3.45;;;;;;;;;;4715257;30;20161;-74
2023/07/09 05:07:29;;;;;;;7.10;3.92;;;;;;;;;;4720432;30;20575;-74
2023/07/09 05:09:56;;;;;;;4.22;3.92;;;;;;;;;;4727624;30;20153;-74
2023/07/09 05:12:26;;;;;;;5.13;3.80;;;;;;;;;;4723016;30;20408;-74
2023/07/09 05:14:56;;;;;;;4.18;3.78;;;;;;;;;;4725569;30;20144;-74
2023/07/09 05:17:24;;;;;;;3.83;3.53;;;;;;;;;;4724792;30;20053;-74
2023/07/09 05:19:51;;;;;;;4.03;3.72;;;;;;;;;;4728418;30;20056;-74
2023/07/09 05:22:19;;;;;;;4.03;3.72;;;;;;;;;;4727294;30;20420;-74
2023/07/09 05:24:46;;;;;;;4.07;3.78;;;;;;;;;;4726101;30;20144;-74
2023/07/09 05:27:14;;;;;;;4.03;3.72;;;;;;;;;;4722302;30;20126;-74
2023/07/09 05:29:41;;;;;;;3.95;3.65;;;;;;;;;;4724109;30;20076;-74
2023/07/09 05:32:08;;;;;;;3.75;3.45;;;;;;;;;;4711538;30;20590;-74
2023/07/09 05:34:36;;;;;;;4.05;3.75;;;;;;;;;;4707033;30;20668;-74
2023/07/09 05:37:04;;;;;;;3.95;3.65;;;;;;;;;;4721026;30;20048;-74
2023/07/09 05:39:32;;;;;;;4.40;4.00;;;;;;;;;;4706695;30;20057;-74
2023/07/09 05:42:01;;;;;;;3.85;3.55;;;;;;;;;;4705958;30;20658;-75
2023/07/09 05:44:28;;;;;;;3.72;3.42;;;;;;;;;;4709586;30;20047;-74
2023/07/09 05:46:56;;;;;;;3.85;3.53;;;;;;;;;;4720383;30;20053;-74
2023/07/09 05:49:23;;;;;;;4.30;3.50;;;;;;;;;;4728566;30;20127;-74
2023/07/09 05:51:50;;;;;;;3.80;3.50;;;;;;;;;;4717269;30;20543;-74
2023/07/09 05:54:18;;;;;;;3.75;3.45;;;;;;;;;;4722257;30;20053;-74
2023/07/09 05:56:46;;;;;;;3.65;3.40;;;;;;;;;;4718574;30;20076;-74
2023/07/09 05:59:14;;;;;;;3.70;3.40;;;;;;;;;;4723500;30;20460;-74
2023/07/09 06:01:41;;;;;;;3.70;3.42;;;;;;;;;;4720780;30;20057;-74
2023/07/09 06:04:13;;;;;;;4.47;3.85;;;;;;;;;;4723892;30;20513;-74
2023/07/09 06:06:41;;;;;;;4.10;3.80;;;;;;;;;;4722053;30;20063;-74
2023/07/09 06:09:09;;;;;;;3.90;3.50;;;;;;;;;;4724290;30;20053;-74
2023/07/09 06:11:37;;;;;;;3.85;3.55;;;;;;;;;;4724351;30;20049;-74
2023/07/09 06:14:05;;;;;;;4.18;3.88;;;;;;;;;;4720877;30;20115;-74
2023/07/09 06:16:32;;;;;;;4.35;4.05;;;;;;;;;;4716468;30;20045;-74
2023/07/09 06:19:00;;;;;;;4.22;3.92;;;;;;;;;;4726112;30;20405;-74
2023/07/09 06:21:28;;;;;;;4.38;3.97;;;;;;;;;;4723401;30;20664;-74
2023/07/09 06:23:55;;;;;;;4.60;4.20;;;;;;;;;;4724671;30;20060;-74
2023/07/09 06:26:23;;;;;;;3.97;3.67;;;;;;;;;;4724292;30;20420;-74
2023/07/09 06:28:51;;;;;;;4.20;3.80;;;;;;;;;;4718854;30;20110;-74
2023/07/09 06:31:20;;;;;;;4.00;3.60;;;;;;;;;;4719171;30;20161;-74
2023/07/09 06:33:48;;;;;;;4.20;3.90;;;;;;;;;;4720621;30;20053;-74
2023/07/09 06:36:17;;;;;;;4.30;3.92;;;;;;;;;;4721192;30;20053;-74
2023/07/09 06:38:45;;;;;;;4.10;3.80;;;;;;;;;;4722722;30;20048;-74
2023/07/09 06:41:13;;;;;;;4.05;3.75;;;;;;;;;;4717774;30;20122;-74
2023/07/09 06:43:40;;;;;;;4.05;3.75;;;;;;;;;;4722508;30;20329;-74
2023/07/09 06:46:10;;;;;;;4.03;3.80;;;;;;;;;;4710695;30;20096;-74
2023/07/09 06:48:38;;;;;;;4.20;3.80;;;;;;;;;;4713303;30;20540;-75
2023/07/09 06:51:06;;;;;;;3.75;3.45;;;;;;;;;;4721087;30;20093;-74
2023/07/09 06:53:33;;;;;;;4.15;3.85;;;;;;;;;;4715019;30;20146;-75
2023/07/09 06:56:01;;;;;;;4.20;3.85;;;;;;;;;;4718247;30;20140;-75
2023/07/09 06:58:33;;;;;;;4.50;4.10;;;;;;;;;;4724498;30;20785;-74
2023/07/09 07:01:03;;;;;;;4.28;3.97;;;;;;;;;;4716496;30;20068;-74
2023/07/09 07:03:32;;;;;;;4.00;3.70;;;;;;;;;;4717103;30;20140;-75
2023/07/09 07:06:00;;;;;;;4.55;3.50;;;;;;;;;;4722928;30;20443;-75
2023/07/09 07:08:29;;;;;;;4.22;3.92;;;;;;;;;;4716999;30;20052;-75
2023/07/09 07:11:06;;;;;;;4.00;3.70;;;;;;;;;;4724977;30;20045;-75
2023/07/09 07:13:37;;;;;;;6.15;4.10;;;;;;;;;;4715973;30;20288;-74
2023/07/09 07:16:07;;;;;;;3.90;3.60;;;;;;;;;;4719013;30;20049;-75
2023/07/09 07:18:34;;;;;;;3.65;3.35;;;;;;;;;;4723504;30;20045;-75
2023/07/09 07:21:03;;;;;;;3.70;3.40;;;;;;;;;;4723986;30;20049;-75
2023/07/09 07:23:31;;;;;;;4.07;3.70;;;;;;;;;;4722973;30;20053;-74
2023/07/09 07:25:58;;;;;;;4.38;4.00;;;;;;;;;;4716743;30;20136;-75
2023/07/09 07:28:26;;;;;;;3.70;3.40;;;;;;;;;;4723576;30;20073;-74
2023/07/09 07:31:09;;;;;;;5.75;3.90;;;;;;;;;;4724239;30;20076;-74
2023/07/09 07:33:38;;;;;;;4.38;3.78;;;;;;;;;;4722373;30;20051;-75
2023/07/09 07:36:06;;;;;;;4.30;4.00;;;;;;;;;;4722257;30;20065;-74
2023/07/09 07:38:37;;;;;;;4.20;3.90;;;;;;;;;;4725985;30;20053;-76
2023/07/09 07:41:04;;;;;;;4.20;3.90;;;;;;;;;;4725578;30;20052;-77
2023/07/09 07:43:32;;;;;;;4.25;3.63;;;;;;;;;;4718474;30;20292;-77
2023/07/09 07:45:59;;;;;;;4.63;3.67;;;;;;;;;;4724845;30;20305;-76
2023/07/09 07:48:27;;;;;;;3.60;3.30;;;;;;;;;;4721517;30;20575;-76
2023/07/09 07:51:01;;;;;;;3.58;3.38;;;;;;;;;;4715620;30;20056;-76
2023/07/09 07:53:30;;;;;;;3.80;3.50;;;;;;;;;;4723228;30;20056;-76
2023/07/09 07:55:58;;;;;;;4.22;3.45;;;;;;;;;;4721190;30;20044;-76
2023/07/09 07:58:25;;;;;;;3.70;3.40;;;;;;;;;;4724821;30;20056;-76
2023/07/09 08:00:56;;;;;;;3.55;3.33;;;;;;;;;;4721561;30;20058;-76
2023/07/09 08:03:24;;;;;;;;;;;;;;;;;;4722215;30;20331;-76
2023/07/09 08:05:52;;;;;;;3.00;2.80;;;;;;;;;;4722253;30;19930;-76
2023/07/09 08:08:19;;;;;;;3.28;3.08;;;;;;;;;;4724241;30;20084;-77
2023/07/09 08:10:47;;;;;;;3.47;3.28;;;;;;;;;;4711981;30;20554;-77
2023/07/09 08:13:14;;;;;;;3.60;3.40;;;;;;;;;;4711524;30;20140;-76
2023/07/09 08:15:42;;;;;;;3.78;3.47;;;;;;;;;;4732458;30;20053;-77
2023/07/09 08:18:10;;;;;;;3.40;3.20;;;;;;;;;;4722690;30;20049;-76
2023/07/09 08:20:38;;;;;;;3.50;3.20;;;;;;;;;;4718696;30;20061;-76
2023/07/09 08:23:06;;;;;;;3.20;2.92;;;;;;;;;;4723357;30;20613;-78
2023/07/09 08:25:33;;;;;;;4.10;3.30;;;;;;;;;;4725647;30;20057;-78
2023/07/09 08:28:01;;;;;;;3.65;3.35;;;;;;;;;;4723685;30;20056;-76
2023/07/09 08:30:28;;;;;;;3.67;3.40;;;;;;;;;;4725376;30;20088;-75
2023/07/09 08:32:57;;;;;;;3.75;3.50;;;;;;;;;;4719459;30;20476;-75
2023/07/09 08:35:24;;;;;;;4.15;3.78;;;;;;;;;;4715121;30;20060;-75
2023/07/09 08:38:03;;;;;;;3.80;3.50;;;;;;;;;;4719956;30;20050;-76
2023/07/09 08:40:30;;;;;;;3.90;3.50;;;;;;;;;;4716416;30;20048;-77
2023/07/09 08:43:03;;;;;;;3.65;3.42;;;;;;;;;;4722571;30;20102;-76
2023/07/09 08:45:49;;;;;;;3.38;3.13;;;;;;;;;;4726116;30;20060;-77
2023/07/09 08:48:24;;;;;;;3.80;3.50;;;;;;;;;;4727130;30;20052;-76
2023/07/09 08:50:53;;;;;;;3.88;3.55;;;;;;;;;;4726166;30;20064;-77
2023/07/09 08:53:22;;;;;;;4.50;3.45;;;;;;;;;;4725175;30;20130;-76
2023/07/09 08:55:51;;;;;;;4.68;3.90;;;;;;;;;;4731718;30;20663;-76
2023/07/09 08:58:22;;;;;;;5.10;3.60;;;;;;;;;;4726317;30;20058;-77
2023/07/09 09:00:58;;;;;;;3.70;3.40;;;;;;;;;;4712135;30;20574;-74
2023/07/09 09:03:41;;;;;;;3.20;2.97;;;;;;;;;;4725397;30;20080;-75
2023/07/09 09:06:22;;;;;;;3.75;3.45;;;;;;;;;;4714294;30;20057;-76
2023/07/09 09:09:09;;;;;;;3.28;3.08;;;;;;;;;;4728639;30;20064;-75
2023/07/09 09:11:37;;;;;;;3.17;2.97;;;;;;;;;;4718009;30;20071;-76
2023/07/09 09:14:07;;;;;;;5.05;4.50;;;;;;;;;;4719135;30;20580;-76
2023/07/09 09:16:40;;;;;;;3.53;3.33;;;;;;;;;;4718573;30;20588;-77
2023/07/09 09:19:16;;;;;;;3.28;3.08;;;;;;;;;;4723615;30;20098;-75
2023/07/09 09:21:44;;;;;;;3.45;3.20;;;;;;;;;;4729134;30;20379;-76
2023/07/09 09:24:15;;;;;;;3.78;3.30;;;;;;;;;;4724466;30;20574;-76
2023/07/09 09:26:43;;;;;;;4.13;3.70;;;;;;;;;;4727618;30;20091;-75
2023/07/09 09:29:12;;;;;;;3.58;3.28;;;;;;;;;;4726100;30;20067;-77
2023/07/09 09:31:40;;;;;;;3.40;3.20;;;;;;;;;;4724203;30;20060;-75
2023/07/09 09:34:17;;;;;;;3.38;3.17;;;;;;;;;;4717339;30;20110;-76
2023/07/09 09:36:44;;;;;;;4.70;3.58;;;;;;;;;;4725089;30;20056;-77
2023/07/09 09:39:12;;;;;;;3.60;3.30;;;;;;;;;;4744542;24;20052;-82
2023/07/09 09:41:40;;;;;;;3.55;3.25;;;;;;;;;;4751981;30;20052;-83
2023/07/09 09:44:17;;;;;;;3.20;3.00;;;;;;;;;;4747840;30;20148;-84
2023/07/09 09:46:44;;;;;;;3.67;3.38;;;;;;;;;;4749712;30;20060;-84
2023/07/09 09:49:12;;;;;;;3.15;2.95;;;;;;;;;;4745797;30;20057;-84
2023/07/09 09:51:41;;;;;;;6.07;3.70;;;;;;;;;;4752238;30;20063;-84
2023/07/09 09:54:15;;;;;;;3.75;3.45;;;;;;;;;;4743876;30;20052;-83
2023/07/09 09:56:43;;;;;;;3.35;3.15;;;;;;;;;;4741538;30;20114;-83
2023/07/09 09:59:16;;;;;;;3.47;3.28;;;;;;;;;;4739611;30;20044;-83
2023/07/09 10:01:44;;;;;;;2.97;2.78;;;;;;;;;;4762292;30;20087;-83
2023/07/09 10:04:17;;;;;;;3.67;3.38;;;;;;;;;;4746609;30;20663;-83
2023/07/09 10:06:54;;;;;;;3.55;3.22;;;;;;;;;;4750303;30;20052;-84
2023/07/09 10:09:28;;;;;;;3.28;3.00;;;;;;;;;;4749202;30;20115;-84
2023/07/09 10:11:56;;;;;;;3.20;3.00;;;;;;;;;;4752469;30;20106;-83
2023/07/09 10:14:38;;;;;;;3.00;2.80;;;;;;;;;;4753059;30;20116;-85
2023/07/09 10:17:10;;;;;;;3.50;3.25;;;;;;;;;;4757493;30;20080;-84
2023/07/09 10:19:43;;;;;;;3.22;2.97;;;;;;;;;;4757791;30;20076;-82
2023/07/09 10:22:31;;;;;;;3.95;2.85;;;;;;;;;;4746623;30;20052;-83
2023/07/09 10:25:04;;;;;;;2.90;2.70;;;;;;;;;;4757329;30;20064;-83
2023/07/09 10:27:51;;;;;;;2.72;2.53;;;;;;;;;;4751456;30;20084;-82
2023/07/09 10:30:34;;;;;;;3.10;2.90;;;;;;;;;;4747743;30;20091;-83
2023/07/09 10:33:04;;;;;;;2.75;2.53;;;;;;;;;;4751124;30;20043;-84
2023/07/09 10:35:51;;;;;;;2.55;2.35;;;;;;;;;;4767228;30;20051;-83
2023/07/09 10:38:38;;;;;;;2.80;2.60;;;;;;;;;;4758056;30;20168;-84
2023/07/09 10:41:08;;;;;;;2.60;2.40;;;;;;;;;;4760922;30;20109;-84
2023/07/09 10:43:58;;;;;;;2.75;2.65;;;;;;;;;;4763617;30;20052;-83
2023/07/09 10:46:27;;;;;;;2.40;2.30;;;;;;;;;;4766052;30;20075;-84
2023/07/09 10:48:56;;;;;;;3.03;2.83;;;;;;;;;;4743844;30;20084;-84
2023/07/09 10:51:33;;;;;;;2.38;2.28;;;;;;;;;;4754117;30;20146;-83
2023/07/09 10:54:23;;;;;;;2.60;2.40;;;;;;;;;;4752273;30;20593;-83
2023/07/09 10:56:53;;;;;;;2.20;2.10;;;;;;;;;;4756652;30;20048;-80
2023/07/09 10:59:21;;;;;;;2.40;2.30;;;;;;;;;;4755197;30;20044;-82
2023/07/09 11:01:55;;;;;;;2.67;2.47;;;;;;;;;;4754912;30;20067;-84
2023/07/09 11:04:30;;;;;;;3.38;2.55;;;;;;;;;;4754504;30;20052;-84
2023/07/09 11:07:00;;;;;;;2.70;2.20;;;;;;;;;;4754817;30;20147;-83
2023/07/09 11:09:34;;;;;;;2.50;2.30;;;;;;;;;;4753126;30;20059;-83
2023/07/09 11:12:09;;;;;;;2.53;2.35;;;;;;;;;;4752370;30;20064;-84
2023/07/09 11:14:40;;;;;;;2.50;2.40;;;;;;;;;;4753536;30;20075;-83
2023/07/09 11:17:21;;;;;;;2.78;2.58;;;;;;;;;;4753994;30;20052;-83
2023/07/09 11:19:53;;;;;;;2.40;2.20;;;;;;;;;;4754835;30;20056;-83
2023/07/09 11:22:26;;;;;;;2.53;2.42;;;;;;;;;;4750510;30;20308;-83
2023/07/09 11:25:06;;;;;;;2.85;2.65;;;;;;;;;;4747166;30;20056;-83
2023/07/09 11:27:34;;;;;;;3.10;2.90;;;;;;;;;;4752254;30;20436;-84
2023/07/09 11:30:05;;;;;;;2.60;2.40;;;;;;;;;;4752343;30;20135;-84
2023/07/09 11:32:32;;;;;;;;;;;;;;;;;;4753093;30;20082;-84
2023/07/09 11:35:07;;;;;;;2.60;2.50;;;;;;;;;;4748593;30;20317;-83
2023/07/09 11:37:44;;;;;;;3.00;2.80;;;;;;;;;;4750932;30;20078;-85
2023/07/09 11:40:19;;;;;;;3.10;2.80;;;;;;;;;;4749535;30;20150;-85
2023/07/09 11:42:49;;;;;;;3.70;3.13;;;;;;;;;;4750187;30;20102;-84
2023/07/09 11:45:18;;;;;;;2.92;2.72;;;;;;;;;;4752990;30;20060;-84
2023/07/09 11:47:48;;;;;;;3.00;2.80;;;;;;;;;;4750273;30;20045;-84
2023/07/09 11:50:27;;;;;;;3.55;2.72;;;;;;;;;;4749870;30;20063;-84
2023/07/09 11:53:18;;;;;;;2.83;2.63;;;;;;;;;;4750453;30;20047;-84
2023/07/09 11:55:46;;;;;;;2.92;2.63;;;;;;;;;;4753419;30;20582;-85
2023/07/09 11:58:15;;;;;;;2.67;2.47;;;;;;;;;;4748899;30;20052;-85
2023/07/09 12:00:48;;;;;;;2.97;2.77;;;;;;;;;;4750038;30;20048;-84
2023/07/09 12:03:30;;;;;;;2.60;2.50;;;;;;;;;;4757817;30;20041;-89
2023/07/09 12:06:00;;;;;;;2.50;2.40;;;;;;;;;;4761210;30;20239;-86
2023/07/09 12:08:32;;;;;;;2.88;2.72;;;;;;;;;;4761456;30;20091;-85
2023/07/09 12:11:00;;;;;;;2.60;2.50;;;;;;;;;;4764527;30;20048;-86
2023/07/09 12:13:28;;;;;;;2.78;2.60;;;;;;;;;;4761084;30;20063;-85
2023/07/09 12:15:55;;;;;;;2.50;2.40;;;;;;;;;;4763720;30;20098;-85
2023/07/09 12:18:23;;;;;;;2.47;2.38;;;;;;;;;;4765617;30;20051;-85
2023/07/09 12:20:52;;;;;;;2.45;2.25;;;;;;;;;;4758782;30;20039;-86
2023/07/09 12:23:23;;;;;;;2.22;2.13;;;;;;;;;;4761220;30;20102;-85
2023/07/09 12:25:51;;;;;;;3.10;2.85;;;;;;;;;;4756816;30;20151;-85
2023/07/09 12:28:19;;;;;;;3.05;2.85;;;;;;;;;;4755887;30;20092;-85
2023/07/09 12:30:51;;;;;;;2.47;2.38;;;;;;;;;;4760447;30;20080;-84
2023/07/09 12:33:20;;;;;;;2.80;2.60;;;;;;;;;;4750713;30;20075;-85
2023/07/09 12:35:49;;;;;;;2.72;2.53;;;;;;;;;;4753371;30;20470;-86
2023/07/09 12:38:18;;;;;;;2.65;2.50;;;;;;;;;;4750392;30;20752;-84
2023/07/09 12:40:45;;;;;;;2.30;2.20;;;;;;;;;;4746137;30;20068;-83
2023/07/09 12:43:13;;;;;;;3.03;2.35;;;;;;;;;;4746485;30;20050;-83
2023/07/09 12:45:40;;;;;;;2.40;2.20;;;;;;;;;;4747423;30;20052;-85
2023/07/09 12:48:08;;;;;;;2.30;2.20;;;;;;;;;;4747251;30;20465;-85
2023/07/09 12:50:36;;;;;;;2.45;2.35;;;;;;;;;;4747689;30;20056;-84
2023/07/09 12:53:11;;;;;;;2.50;2.30;;;;;;;;;;4747506;30;20516;-83
2023/07/09 12:55:40;;;;;;;2.97;2.13;;;;;;;;;;4746907;30;20052;-83
2023/07/09 12:58:10;;;;;;;3.25;2.20;;;;;;;;;;4746843;30;20048;-83
2023/07/09 13:00:38;;;;;;;1.98;1.88;;;;;;;;;;4747216;30;20052;-83
2023/07/09 13:03:12;;;;;;;2.00;1.90;;;;;;;;;;4747468;30;20163;-83
2023/07/09 13:05:51;;;;;;;2.25;2.15;;;;;;;;;;4746323;30;20641;-83
2023/07/09 13:08:18;;;;;;;3.25;2.15;;;;;;;;;;4746920;30;20068;-84
2023/07/09 13:10:51;;;;;;;2.00;1.90;;;;;;;;;;4746620;30;20056;-84
2023/07/09 13:13:20;;;;;;;2.10;2.00;;;;;;;;;;4747014;30;20155;-85
2023/07/09 13:15:50;;;;;;;2.00;1.90;;;;;;;;;;4745860;30;20068;-85
2023/07/09 13:18:17;;;;;;;1.88;1.77;;;;;;;;;;4747337;30;20044;-84
2023/07/09 13:20:49;;;;;;;1.90;1.80;;;;;;;;;;4745886;30;20080;-84
2023/07/09 13:23:18;;;;;;;1.90;1.80;;;;;;;;;;4745273;30;20056;-84
2023/07/09 13:25:46;;;;;;;1.95;1.85;;;;;;;;;;4745088;30;20083;-85
2023/07/09 13:28:22;;;;;;;2.20;2.10;;;;;;;;;;4749140;30;20056;-87
2023/07/09 13:30:51;;;;;;;2.28;2.17;;;;;;;;;;4742801;30;20108;-87
2023/07/09 13:33:19;;;;;;;2.33;2.13;;;;;;;;;;4746887;30;20644;-84
2023/07/09 13:35:47;;;;;;;1.90;1.80;;;;;;;;;;4769759;24;20681;-79
2023/07/09 13:38:16;;;;;;;2.43;2.00;;;;;;;;;;4751769;30;20059;-79
2023/07/09 13:40:45;;;;;;;2.28;1.90;;;;;;;;;;4748670;30;20323;-79
2023/07/09 13:43:20;;;;;;;1.92;1.83;;;;;;;;;;4722484;30;20071;-79
2023/07/09 13:45:49;;;;;;;2.30;2.20;;;;;;;;;;4733587;30;20061;-79
2023/07/09 13:48:18;;;;;;;1.90;1.80;;;;;;;;;;4733682;30;20138;-79
2023/07/09 13:50:46;;;;;;;2.13;1.90;;;;;;;;;;4734755;30;20061;-79
2023/07/09 13:53:15;;;;;;;3.38;2.03;;;;;;;;;;4734748;30;20488;-79
2023/07/09 13:55:42;;;;;;;2.20;2.00;;;;;;;;;;4731426;30;20424;-79
2023/07/09 13:58:11;;;;;;;2.03;1.92;;;;;;;;;;4735070;30;20044;-80
2023/07/09 14:00:39;;;;;;;2.15;2.05;;;;;;;;;;4734932;30;20818;-79
2023/07/09 14:03:14;;;;;;;2.42;2.33;;;;;;;;;;4731010;30;20049;-79
2023/07/09 14:05:43;;;;;;;2.10;1.88;;;;;;;;;;4734184;30;22870;-79
2023/07/09 14:08:10;;;;;;;2.30;2.10;;;;;;;;;;4732576;30;20056;-79
2023/07/09 14:10:41;;;;;;;2.20;2.10;;;;;;;;;;4734097;30;20059;-80
2023/07/09 14:13:17;;;;;;;1.90;1.80;;;;;;;;;;4736247;30;20048;-79
2023/07/09 14:15:45;;;;;;;2.13;1.92;;;;;;;;;;4734958;30;20059;-80
2023/07/09 14:18:13;;;;;;;2.40;2.22;;;;;;;;;;4735103;30;20048;-80
2023/07/09 14:20:41;;;;;;;2.75;2.03;;;;;;;;;;4734314;30;20389;-80
2023/07/09 14:23:11;;;;;;;2.00;1.90;;;;;;;;;;4733392;30;20223;-77
2023/07/09 14:25:39;;;;;;;2.00;1.90;;;;;;;;;;4742262;30;20060;-78
2023/07/09 14:28:14;;;;;;;2.00;1.90;;;;;;;;;;4730260;30;20110;-78
2023/07/09 14:30:43;;;;;;;2.00;1.88;;;;;;;;;;4732507;30;20060;-78
2023/07/09 14:33:12;;;;;;;1.80;1.70;;;;;;;;;;4744235;30;20053;-78
2023/07/09 14:35:40;;;;;;;1.80;1.70;;;;;;;;;;4738419;30;20064;-79
2023/07/09 14:38:26;;;;;;;2.47;2.28;;;;;;;;;;4745715;30;20110;-79
2023/07/09 14:40:55;;;;;;;2.28;2.10;;;;;;;;;;4733973;30;20044;-78
2023/07/09 14:43:23;;;;;;;2.22;2.13;;;;;;;;;;4729810;30;20053;-79
2023/07/09 14:45:51;;;;;;;2.97;1.88;;;;;;;;;;4724989;30;20056;-77
2023/07/09 14:48:23;;;;;;;2.05;1.95;;;;;;;;;;4725226;30;20524;-78
2023/07/09 14:50:50;;;;;;;2.13;2.03;;;;;;;;;;4727251;30;20106;-78
2023/07/09 14:53:27;;;;;;;2.03;1.92;;;;;;;;;;4732449;30;20647;-78
2023/07/09 14:55:55;;;;;;;2.03;1.92;;;;;;;;;;4728704;30;20061;-79
2023/07/09 14:58:23;;;;;;;2.10;2.00;;;;;;;;;;4723518;30;20486;-78
2023/07/09 15:00:51;;;;;;;1.88;1.77;;;;;;;;;;4729586;30;20052;-79